Time;durP1;ratioP1;P1;durP2;ratioP2;P2;SDS_P1;SDS_P2;PMS_P1;PMS_P2;Temp;Humidity;BMP_temperature;BMP_pressure;BME280_temperature;BME280_humidity;BME280_pressure;Samples;Min_cycle;Max_cycle;Signal;HPM_P1;HPM_P2
2022/11/09 00:01:10;;;;;;;;;;;9.90;99.90;;;;;;5090023;28;19908;-78
2022/11/09 00:03:35;;;;;;;;;;;9.90;99.90;;;;;;5074533;28;19908;-77
2022/11/09 00:06:01;;;;;;;;;;;9.90;99.90;;;;;;5090661;28;19915;-78
2022/11/09 00:08:27;;;;;;;;;;;9.90;99.90;;;;;;5093554;28;20647;-78
2022/11/09 00:10:53;;;;;;;;;;;9.90;99.90;;;;;;5080198;28;19908;-77
2022/11/09 00:13:18;;;;;;;;;;;9.90;99.90;;;;;;5108950;28;20350;-77
2022/11/09 00:15:44;;;;;;;;;;;9.90;99.90;;;;;;5074205;28;19913;-76
2022/11/09 00:18:09;;;;;;;;;;;9.90;99.90;;;;;;5075368;28;19919;-76
2022/11/09 00:20:35;;;;;;;;;;;9.90;99.90;;;;;;5074512;28;19908;-77
2022/11/09 00:23:01;;;;;;;;;;;9.90;99.90;;;;;;5075221;28;19909;-76
2022/11/09 00:25:26;;;;;;;;;;;9.90;99.90;;;;;;5073848;28;20354;-75
2022/11/09 00:27:52;;;;;;;;;;;9.90;99.90;;;;;;5074203;28;19915;-76
2022/11/09 00:30:18;;;;;;;;;;;9.80;99.90;;;;;;5073904;28;19966;-76
2022/11/09 00:32:43;;;;;;;;;;;9.90;99.90;;;;;;5074065;28;19970;-76
2022/11/09 00:35:09;;;;;;;;;;;9.90;99.90;;;;;;5073986;28;19959;-76
2022/11/09 00:37:34;;;;;;;;;;;9.90;99.90;;;;;;5073710;28;20443;-75
2022/11/09 00:40:00;;;;;;;;;;;9.90;99.90;;;;;;5073870;28;19909;-76
2022/11/09 00:42:25;;;;;;;;;;;9.90;99.90;;;;;;5071803;28;20284;-76
2022/11/09 00:44:51;;;;;;;;;;;10.00;99.90;;;;;;5073881;28;19920;-76
2022/11/09 00:47:16;;;;;;;;;;;10.00;99.90;;;;;;5073747;28;19919;-76
2022/11/09 00:49:42;;;;;;;;;;;10.00;99.90;;;;;;5074002;28;19913;-76
2022/11/09 00:52:08;;;;;;;;;;;10.00;99.90;;;;;;5074202;28;19999;-76
2022/11/09 00:54:33;;;;;;;;;;;10.10;99.90;;;;;;5088964;28;19913;-76
2022/11/09 00:56:59;;;;;;;;;;;10.00;99.90;;;;;;5073796;28;19916;-76
2022/11/09 00:59:24;;;;;;;;;;;10.00;99.90;;;;;;5072993;28;19912;-75
2022/11/09 01:01:50;;;;;;;;;;;10.00;99.90;;;;;;5072100;28;19921;-76
2022/11/09 01:04:15;;;;;;;;;;;9.90;99.90;;;;;;5072903;28;19954;-76
2022/11/09 01:06:41;;;;;;;;;;;9.90;99.90;;;;;;5073374;28;19915;-76
2022/11/09 01:09:07;;;;;;;;;;;9.90;99.90;;;;;;5073473;28;19970;-76
2022/11/09 01:11:32;;;;;;;;;;;9.90;99.90;;;;;;5072689;28;19913;-76
2022/11/09 01:13:59;;;;;;;;;;;9.80;99.90;;;;;;5073597;28;19919;-76
2022/11/09 01:16:25;;;;;;;;;;;9.80;99.90;;;;;;5072849;28;20007;-76
2022/11/09 01:18:54;;;;;;;;;;;9.70;99.90;;;;;;5073541;28;20341;-76
2022/11/09 01:21:20;;;;;;;;;;;9.70;99.90;;;;;;5072728;28;19912;-76
2022/11/09 01:23:45;;;;;;;;;;;9.70;99.90;;;;;;5073323;28;19908;-75
2022/11/09 01:26:12;;;;;;;;;;;9.60;99.90;;;;;;5072427;28;19908;-77
2022/11/09 01:28:38;;;;;;;;;;;9.60;99.90;;;;;;5073614;28;19908;-74
2022/11/09 01:31:08;;;;;;;;;;;9.60;99.90;;;;;;5073684;28;19908;-75
2022/11/09 01:33:35;;;;;;;;;;;9.60;99.90;;;;;;5105822;28;19919;-76
2022/11/09 01:36:01;;;;;;;;;;;9.50;99.90;;;;;;5106081;28;19912;-75
2022/11/09 01:38:26;;;;;;;;;;;9.50;99.90;;;;;;5071212;28;19912;-75
2022/11/09 01:40:52;;;;;;;;;;;9.50;99.90;;;;;;5072990;28;19953;-75
2022/11/09 01:43:19;;;;;;;;;;;9.60;99.90;;;;;;5072977;28;19915;-75
2022/11/09 01:45:48;;;;;;;;;;;9.50;99.90;;;;;;5073482;28;20380;-75
2022/11/09 01:48:17;;;;;;;;;;;9.50;99.90;;;;;;5072750;28;20331;-75
2022/11/09 01:50:59;;;;;;;;;;;9.50;99.90;;;;;;5073054;28;20344;-75
2022/11/09 01:53:28;;;;;;;;;;;9.50;99.90;;;;;;5072658;28;19916;-74
2022/11/09 01:55:55;;;;;;;;;;;9.50;99.90;;;;;;5071981;28;20042;-76
2022/11/09 01:58:23;;;;;;;;;;;9.50;99.90;;;;;;5073572;28;20393;-75
2022/11/09 02:00:50;;;;;;;;;;;9.40;99.90;;;;;;5077487;28;19909;-75
2022/11/09 02:03:25;;;;;;;;;;;9.40;99.90;;;;;;5073771;28;19967;-75
2022/11/09 02:05:51;;;;;;;;;;;9.40;99.90;;;;;;5072784;28;20277;-75
2022/11/09 02:08:18;;;;;;;;;;;9.40;99.90;;;;;;5072452;28;19939;-75
2022/11/09 02:10:44;;;;;;;;;;;9.40;99.90;;;;;;5073200;28;19951;-75
2022/11/09 02:13:11;;;;;;;;;;;9.40;99.90;;;;;;5072679;28;20347;-75
2022/11/09 02:15:36;;;;;;;;;;;9.30;99.90;;;;;;5073437;28;20003;-75
2022/11/09 02:18:02;;;;;;;;;;;9.30;99.90;;;;;;5073281;28;19950;-74
2022/11/09 02:20:28;;;;;;;;;;;9.30;99.90;;;;;;5072044;28;19912;-75
2022/11/09 02:22:54;;;;;;;;;;;9.30;99.90;;;;;;5072689;28;19962;-75
2022/11/09 02:25:20;;;;;;;;;;;9.30;99.90;;;;;;5072303;28;19918;-76
2022/11/09 02:27:45;;;;;;;;;;;9.30;99.90;;;;;;5105441;28;20311;-76
2022/11/09 02:30:11;;;;;;;;;;;9.30;99.90;;;;;;5072093;28;19909;-75
2022/11/09 02:32:37;;;;;;;;;;;9.20;99.90;;;;;;5073385;28;19916;-75
2022/11/09 02:35:03;;;;;;;;;;;9.20;99.90;;;;;;5077581;28;20273;-76
2022/11/09 02:37:37;;;;;;;;;;;9.20;99.90;;;;;;5091004;28;19912;-74
2022/11/09 02:40:05;;;;;;;;;;;9.20;99.90;;;;;;5092578;28;19908;-75
2022/11/09 02:42:30;;;;;;;;;;;9.20;99.90;;;;;;5092602;28;19908;-75
2022/11/09 02:44:58;;;;;;;;;;;9.30;99.90;;;;;;5092626;28;19912;-75
2022/11/09 02:47:23;;;;;;;;;;;9.30;99.90;;;;;;5092336;28;19955;-75
2022/11/09 02:49:49;;;;;;;;;;;9.30;99.90;;;;;;5092981;28;19943;-74
2022/11/09 02:52:15;;;;;;;;;;;9.30;99.90;;;;;;5093822;28;19974;-75
2022/11/09 02:54:40;;;;;;;;;;;9.30;99.90;;;;;;5096671;28;19912;-75
2022/11/09 02:57:06;;;;;;;;;;;9.30;99.90;;;;;;5096981;28;20315;-75
2022/11/09 02:59:32;;;;;;;;;;;9.40;99.90;;;;;;5096101;28;19909;-75
2022/11/09 03:01:57;;;;;;;;;;;9.40;99.90;;;;;;5096798;28;20295;-75
2022/11/09 03:04:23;;;;;;;;;;;9.30;99.90;;;;;;5096218;28;19908;-75
2022/11/09 03:06:48;;;;;;;;;;;9.30;99.90;;;;;;5096433;28;19908;-75
2022/11/09 03:09:14;;;;;;;;;;;9.30;99.90;;;;;;5096287;28;19908;-75
2022/11/09 03:11:40;;;;;;;;;;;9.40;99.90;;;;;;5096566;28;20265;-75
2022/11/09 03:14:08;;;;;;;;;;;9.30;99.90;;;;;;5096375;28;20388;-75
2022/11/09 03:16:34;;;;;;;;;;;9.30;99.90;;;;;;5096110;28;19957;-75
2022/11/09 03:18:59;;;;;;;;;;;9.30;99.90;;;;;;5095328;28;19912;-75
2022/11/09 03:21:25;;;;;;;;;;;9.30;99.90;;;;;;5095928;28;19951;-76
2022/11/09 03:23:51;;;;;;;;;;;9.20;99.90;;;;;;5096421;28;19908;-76
2022/11/09 03:26:16;;;;;;;;;;;9.20;99.90;;;;;;5095794;28;19961;-76
2022/11/09 03:28:42;;;;;;;;;;;9.20;99.90;;;;;;5096286;28;19916;-76
2022/11/09 03:31:07;;;;;;;;;;;9.20;99.90;;;;;;5096300;28;20269;-76
2022/11/09 03:33:33;;;;;;;;;;;9.30;99.90;;;;;;5095718;28;19955;-76
2022/11/09 03:35:59;;;;;;;;;;;9.30;99.90;;;;;;5095941;28;19916;-75
2022/11/09 03:38:24;;;;;;;;;;;9.30;99.90;;;;;;5095612;28;19919;-75
2022/11/09 03:40:50;;;;;;;;;;;9.30;99.90;;;;;;5094835;28;19987;-75
2022/11/09 03:43:15;;;;;;;;;;;9.30;99.90;;;;;;5095473;28;20365;-75
2022/11/09 03:45:41;;;;;;;;;;;9.20;99.90;;;;;;5095815;28;19908;-74
2022/11/09 03:48:07;;;;;;;;;;;9.20;99.90;;;;;;5096045;28;20313;-75
2022/11/09 03:50:33;;;;;;;;;;;9.20;99.90;;;;;;5095127;28;19912;-76
2022/11/09 03:52:59;;;;;;;;;;;9.20;99.90;;;;;;5095682;28;19961;-75
2022/11/09 03:55:25;;;;;;;;;;;9.20;99.90;;;;;;5095118;28;19938;-76
2022/11/09 03:57:51;;;;;;;;;;;9.20;99.90;;;;;;5094526;28;19916;-75
2022/11/09 04:00:18;;;;;;;;;;;9.20;99.90;;;;;;5095129;28;19961;-75
2022/11/09 04:02:43;;;;;;;;;;;9.20;99.90;;;;;;5094481;28;19967;-76
2022/11/09 04:05:09;;;;;;;;;;;9.20;99.90;;;;;;5094559;28;20338;-76
2022/11/09 04:07:35;;;;;;;;;;;9.20;99.90;;;;;;5092758;28;19909;-75
2022/11/09 04:10:00;;;;;;;;;;;9.20;99.90;;;;;;5094561;28;19914;-75
2022/11/09 04:12:26;;;;;;;;;;;9.20;99.90;;;;;;5093634;28;19909;-75
2022/11/09 04:14:51;;;;;;;;;;;9.20;99.90;;;;;;5094113;28;19920;-74
2022/11/09 04:17:17;;;;;;;;;;;9.20;99.90;;;;;;5093807;28;19916;-75
2022/11/09 04:19:43;;;;;;;;;;;9.10;99.90;;;;;;5094272;28;19908;-75
2022/11/09 04:22:08;;;;;;;;;;;9.10;99.90;;;;;;5094478;28;20242;-74
2022/11/09 04:24:34;;;;;;;;;;;9.10;99.90;;;;;;5092210;28;20349;-74
2022/11/09 04:26:59;;;;;;;;;;;9.10;99.90;;;;;;5094062;28;19919;-74
2022/11/09 04:29:25;;;;;;;;;;;9.10;99.90;;;;;;5093431;28;19915;-74
2022/11/09 04:31:50;;;;;;;;;;;9.10;99.90;;;;;;5094264;28;19957;-74
2022/11/09 04:34:16;;;;;;;;;;;9.10;99.90;;;;;;5093451;28;19919;-75
2022/11/09 04:36:42;;;;;;;;;;;9.10;99.90;;;;;;5094009;28;20068;-75
2022/11/09 04:39:07;;;;;;;;;;;9.10;99.90;;;;;;5093972;28;19915;-75
2022/11/09 04:41:33;;;;;;;;;;;9.10;99.90;;;;;;5093786;28;19915;-75
2022/11/09 04:43:58;;;;;;;;;;;9.10;99.90;;;;;;5093944;28;20349;-76
2022/11/09 04:46:24;;;;;;;;;;;9.10;99.90;;;;;;5093215;28;19912;-75
2022/11/09 04:48:49;;;;;;;;;;;9.10;99.90;;;;;;5094179;28;19912;-75
2022/11/09 04:51:15;;;;;;;;;;;9.10;99.90;;;;;;5093053;28;20342;-74
2022/11/09 04:53:41;;;;;;;;;;;9.00;99.90;;;;;;5094050;28;19998;-75
2022/11/09 04:56:06;;;;;;;;;;;9.10;99.90;;;;;;5092251;28;19916;-74
2022/11/09 04:58:32;;;;;;;;;;;9.20;99.90;;;;;;5093060;28;20509;-75
2022/11/09 05:03:42;;;;;;;;;;;9.20;99.90;;;;;;5110846;27;20295;-75
2022/11/09 05:08:52;;;;;;;;;;;9.30;99.90;;;;;;5110708;28;19942;-75
2022/11/09 05:11:18;;;;;;;;;;;9.30;99.90;;;;;;5110040;28;19912;-75
2022/11/09 05:13:43;;;;;;;;;;;9.20;99.90;;;;;;5110875;28;19919;-75
2022/11/09 05:16:09;;;;;;;;;;;9.30;99.90;;;;;;5110330;28;19999;-75
2022/11/09 05:18:34;;;;;;;;;;;9.30;99.90;;;;;;5109556;28;20051;-75
2022/11/09 05:21:00;;;;;;;;;;;9.30;99.90;;;;;;5110374;28;19959;-75
2022/11/09 05:26:10;;;;;;;;;;;9.40;99.90;;;;;;5110022;28;19953;-75
2022/11/09 05:28:35;;;;;;;;;;;9.40;99.90;;;;;;5109818;28;19908;-75
2022/11/09 05:31:01;;;;;;;;;;;9.30;99.90;;;;;;5110393;28;19986;-75
2022/11/09 05:33:26;;;;;;;;;;;9.30;99.90;;;;;;5109490;28;19908;-75
2022/11/09 05:35:55;;;;;;;;;;;9.20;99.90;;;;;;5110044;28;19908;-75
2022/11/09 05:38:21;;;;;;;;;;;9.10;99.90;;;;;;5109832;28;20406;-74
2022/11/09 05:40:47;;;;;;;;;;;9.10;99.90;;;;;;5108851;28;19996;-74
2022/11/09 05:43:13;;;;;;;;;;;9.10;99.90;;;;;;5109381;28;20072;-74
2022/11/09 05:45:39;;;;;;;;;;;9.00;99.90;;;;;;5109723;28;20002;-74
2022/11/09 05:48:05;;;;;;;;;;;9.00;99.90;;;;;;5109923;28;20413;-74
2022/11/09 05:50:30;;;;;;;;;;;8.90;99.90;;;;;;5109417;28;19923;-74
2022/11/09 05:52:57;;;;;;;;;;;9.00;99.90;;;;;;5144354;27;19998;-74
2022/11/09 05:55:23;;;;;;;;;;;8.90;99.90;;;;;;5110748;28;19908;-74
2022/11/09 05:57:48;;;;;;;;;;;9.00;99.90;;;;;;5109876;28;20444;-74
2022/11/09 06:00:14;;;;;;;;;;;9.00;99.90;;;;;;5109059;28;19908;-75
2022/11/09 06:02:40;;;;;;;;;;;9.00;99.90;;;;;;5109413;28;19927;-74
2022/11/09 06:05:05;;;;;;;;;;;9.00;99.90;;;;;;5109422;28;19908;-75
2022/11/09 06:07:31;;;;;;;;;;;9.00;99.90;;;;;;5109142;28;19911;-76
2022/11/09 06:09:57;;;;;;;;;;;9.00;99.90;;;;;;5109354;28;19908;-76
2022/11/09 06:12:22;;;;;;;;;;;9.00;99.90;;;;;;5108648;28;19954;-76
2022/11/09 06:14:48;;;;;;;;;;;9.10;99.90;;;;;;5097134;28;19914;-76
2022/11/09 06:17:14;;;;;;;;;;;9.10;99.90;;;;;;5095448;28;19912;-76
2022/11/09 06:19:39;;;;;;;;;;;9.10;99.90;;;;;;5095673;28;20238;-76
2022/11/09 06:22:05;;;;;;;;;;;9.10;99.90;;;;;;5095820;28;19916;-76
2022/11/09 06:24:30;;;;;;;;;;;9.10;99.90;;;;;;5095171;28;19920;-76
2022/11/09 06:26:56;;;;;;;;;;;9.00;99.90;;;;;;5095596;28;19908;-76
2022/11/09 06:29:21;;;;;;;;;;;9.10;99.90;;;;;;5094874;28;19916;-76
2022/11/09 06:31:47;;;;;;;;;;;9.00;99.90;;;;;;5095651;28;20268;-75
2022/11/09 06:34:14;;;;;;;;;;;9.00;99.90;;;;;;5095160;28;19908;-75
2022/11/09 06:36:39;;;;;;;;;;;9.10;99.90;;;;;;5095448;28;19912;-76
2022/11/09 06:39:07;;;;;;;;;;;9.10;99.90;;;;;;5095893;28;19912;-75
2022/11/09 06:41:33;;;;;;;;;;;9.20;99.90;;;;;;5094942;28;19973;-76
2022/11/09 06:43:59;;;;;;;;;;;9.10;99.90;;;;;;5107765;28;20361;-76
2022/11/09 06:46:24;;;;;;;;;;;9.20;99.90;;;;;;5101868;28;19908;-75
2022/11/09 06:48:50;;;;;;;;;;;9.20;99.90;;;;;;5094951;28;20289;-75
2022/11/09 06:51:16;;;;;;;;;;;9.20;99.90;;;;;;5094792;28;19961;-76
2022/11/09 06:53:42;;;;;;;;;;;9.20;99.90;;;;;;5095280;28;19943;-76
2022/11/09 06:56:08;;;;;;;;;;;9.20;99.90;;;;;;5095206;28;19993;-76
2022/11/09 06:58:34;;;;;;;;;;;9.20;99.90;;;;;;5094087;28;19912;-75
2022/11/09 07:01:04;;;;;;;;;;;9.20;99.90;;;;;;5094965;28;20331;-76
2022/11/09 07:03:30;;;;;;;;;;;9.10;99.90;;;;;;5093968;28;19935;-76
2022/11/09 07:05:55;;;;;;;;;;;9.10;99.90;;;;;;5093594;28;19912;-76
2022/11/09 07:08:21;;;;;;;;;;;9.10;99.90;;;;;;5094199;28;19915;-75
2022/11/09 07:10:47;;;;;;;;;;;9.10;99.90;;;;;;5095124;28;19908;-75
2022/11/09 07:13:12;;;;;;;;;;;9.10;99.90;;;;;;5093365;28;19917;-75
2022/11/09 07:15:38;;;;;;;;;;;9.10;99.90;;;;;;5094137;28;19912;-75
2022/11/09 07:18:05;;;;;;;;;;;9.10;99.90;;;;;;5093567;28;19919;-75
2022/11/09 07:20:30;;;;;;;;;;;9.10;99.90;;;;;;5093199;28;19948;-75
2022/11/09 07:22:56;;;;;;;;;;;9.10;99.90;;;;;;5094198;28;19970;-75
2022/11/09 07:25:22;;;;;;;;;;;9.10;99.90;;;;;;5092800;28;20411;-75
2022/11/09 07:27:47;;;;;;;;;;;9.00;99.90;;;;;;5093995;28;19953;-76
2022/11/09 07:30:14;;;;;;;;;;;9.00;99.90;;;;;;5094337;28;20280;-75
2022/11/09 07:32:40;;;;;;;;;;;9.00;99.90;;;;;;5093768;28;19995;-75
2022/11/09 07:35:06;;;;;;;;;;;9.10;99.90;;;;;;5094380;28;19908;-75
2022/11/09 07:37:31;;;;;;;;;;;9.20;99.90;;;;;;5093531;28;19914;-76
2022/11/09 07:39:57;;;;;;;;;;;9.20;99.90;;;;;;5094594;28;19908;-75
2022/11/09 07:42:23;;;;;;;;;;;9.20;99.90;;;;;;5093255;28;20018;-75
2022/11/09 07:44:49;;;;;;;;;;;9.20;99.90;;;;;;5094058;28;19958;-75
2022/11/09 07:47:15;;;;;;;;;;;9.30;99.90;;;;;;5093485;28;20261;-75
2022/11/09 07:49:40;;;;;;;;;;;9.30;99.90;;;;;;5093020;28;19915;-76
2022/11/09 07:52:06;;;;;;;;;;;9.30;99.90;;;;;;5093597;28;19908;-76
2022/11/09 07:54:31;;;;;;;;;;;9.30;99.90;;;;;;5091955;28;20284;-76
2022/11/09 07:56:57;;;;;;;;;;;9.30;99.90;;;;;;5093731;28;19908;-76
2022/11/09 07:59:23;;;;;;;;;;;9.30;99.90;;;;;;5093100;28;19930;-75
2022/11/09 08:01:48;;;;;;;;;;;9.30;99.90;;;;;;5093462;28;20319;-76
2022/11/09 08:04:14;;;;;;;;;;;9.30;99.90;;;;;;5092410;28;19931;-76
2022/11/09 08:06:39;;;;;;;;;;;9.30;99.90;;;;;;5092546;28;20276;-76
2022/11/09 08:09:05;;;;;;;;;;;9.30;99.90;;;;;;5093460;28;19914;-76
2022/11/09 08:11:31;;;;;;;;;;;9.30;99.90;;;;;;5093076;28;20348;-76
2022/11/09 08:13:56;;;;;;;;;;;9.30;99.90;;;;;;5126331;27;19967;-75
2022/11/09 08:16:22;;;;;;;;;;;9.20;99.90;;;;;;5092444;28;19947;-76
2022/11/09 08:18:48;;;;;;;;;;;9.20;99.90;;;;;;5093716;28;19908;-76
2022/11/09 08:21:14;;;;;;;;;;;9.10;99.90;;;;;;5093281;28;19916;-74
2022/11/09 08:23:39;;;;;;;;;;;9.10;99.90;;;;;;5092619;28;20031;-74
2022/11/09 08:26:05;;;;;;;;;;;9.00;99.90;;;;;;5092852;28;20388;-75
2022/11/09 08:28:31;;;;;;;;;;;9.10;99.90;;;;;;5091981;28;19935;-74
2022/11/09 08:30:58;;;;;;;;;;;9.10;99.90;;;;;;5093170;28;19916;-76
2022/11/09 08:33:25;;;;;;;;;;;9.20;99.90;;;;;;5092877;28;19912;-74
2022/11/09 08:35:51;;;;;;;;;;;9.20;99.90;;;;;;5091628;28;19912;-76
2022/11/09 08:38:17;;;;;;;;;;;9.30;99.90;;;;;;5092636;28;19930;-83
2022/11/09 08:40:42;;;;;;;;;;;9.30;99.90;;;;;;5092772;28;19908;-83
2022/11/09 08:43:09;;;;;;;;;;;9.20;99.90;;;;;;5092865;28;19967;-80
2022/11/09 08:45:35;;;;;;;;;;;9.10;99.90;;;;;;5092398;28;19912;-79
2022/11/09 08:48:01;;;;;;;;;;;9.10;99.90;;;;;;5092739;28;19915;-82
2022/11/09 08:50:28;;;;;;;;;;;9.00;99.90;;;;;;5092483;28;19908;-81
2022/11/09 08:52:53;;;;;;;;;;;8.90;99.90;;;;;;5092654;28;19916;-79
2022/11/09 08:55:19;;;;;;;;;;;8.90;99.90;;;;;;5091539;28;19909;-78
2022/11/09 08:57:45;;;;;;;;;;;8.90;99.90;;;;;;5092808;28;19908;-77
2022/11/09 09:00:10;;;;;;;;;;;8.90;99.90;;;;;;5092817;28;19908;-76
2022/11/09 09:02:36;;;;;;;;;;;8.90;99.90;;;;;;5091325;28;19920;-80
2022/11/09 09:05:02;;;;;;;;;;;8.90;99.90;;;;;;5092803;28;20008;-79
2022/11/09 09:07:28;;;;;;;;;;;8.90;99.90;;;;;;5091731;28;19920;-78
2022/11/09 09:09:53;;;;;;;;;;;8.90;99.90;;;;;;5092560;28;19912;-77
2022/11/09 09:12:19;;;;;;;;;;;8.90;99.90;;;;;;5092398;28;19978;-81
2022/11/09 09:14:44;;;;;;;;;;;8.90;99.90;;;;;;5092253;28;20403;-83
2022/11/09 09:17:10;;;;;;;;;;;8.90;99.90;;;;;;5091139;28;19931;-83
2022/11/09 09:19:36;;;;;;;;;;;8.90;99.90;;;;;;5092832;28;19990;-84
2022/11/09 09:22:01;;;;;;;;;;;8.90;99.90;;;;;;5092375;28;20348;-84
2022/11/09 09:24:27;;;;;;;;;;;8.90;99.90;;;;;;5092160;28;19962;-84
2022/11/09 09:26:53;;;;;;;;;;;8.80;99.90;;;;;;5092809;28;19908;-81
2022/11/09 09:29:18;;;;;;;;;;;8.90;99.90;;;;;;5092457;28;19939;-78
2022/11/09 09:31:44;;;;;;;;;;;8.80;99.90;;;;;;5092001;28;19912;-76
2022/11/09 09:34:10;;;;;;;;;;;8.80;99.90;;;;;;5092483;28;20345;-75
2022/11/09 09:36:36;;;;;;;;;;;8.70;99.90;;;;;;5091547;28;19977;-75
2022/11/09 09:39:02;;;;;;;;;;;8.80;99.90;;;;;;5092518;28;19915;-74
2022/11/09 09:41:27;;;;;;;;;;;8.70;99.90;;;;;;5091374;28;19922;-75
2022/11/09 09:43:55;;;;;;;;;;;8.70;99.90;;;;;;5092144;28;19916;-75
2022/11/09 09:46:27;;;;;;;;;;;8.80;99.90;;;;;;5091835;28;19908;-75
2022/11/09 09:49:13;;;;;;;;;;;8.90;99.90;;;;;;5092812;28;19908;-75
2022/11/09 09:51:45;;;;;;;;;;;8.90;99.90;;;;;;5095037;28;20003;-75
2022/11/09 09:54:15;;;;;;;;;;;9.00;99.90;;;;;;5095827;28;19908;-76
2022/11/09 09:56:43;;;;;;;;;;;9.00;99.90;;;;;;5095271;28;20013;-75
2022/11/09 09:59:08;;;;;;;;;;;9.10;99.90;;;;;;5094312;28;19908;-75
2022/11/09 10:01:36;;;;;;;;;;;9.20;99.90;;;;;;5095072;28;20429;-75
2022/11/09 10:04:01;;;;;;;;;;;9.40;99.90;;;;;;5095724;28;19966;-74
2022/11/09 10:06:39;;;;;;;;;;;9.40;99.90;;;;;;5095483;28;19908;-74
2022/11/09 10:09:22;;;;;;;;;;;9.40;99.90;;;;;;5095553;28;19915;-74
2022/11/09 10:11:55;;;;;;;;;;;9.40;99.90;;;;;;5095778;28;20353;-74
2022/11/09 10:14:47;;;;;;;;;;;9.50;99.90;;;;;;5095773;28;20000;-74
2022/11/09 10:17:28;;;;;;;;;;;9.50;99.90;;;;;;5095509;28;19913;-74
2022/11/09 10:19:57;;;;;;;;;;;9.60;99.90;;;;;;5095540;28;20025;-73
2022/11/09 10:22:25;;;;;;;;;;;9.60;99.90;;;;;;5095365;28;19924;-75
2022/11/09 10:24:50;;;;;;;;;;;9.60;99.90;;;;;;5095389;28;19914;-75
2022/11/09 10:27:36;;;;;;;;;;;9.60;99.90;;;;;;5095317;28;20002;-74
2022/11/09 10:30:07;;;;;;;;;;;9.70;99.90;;;;;;5095426;28;19908;-74
2022/11/09 10:32:33;;;;;;;;;;;9.70;99.90;;;;;;5094848;28;19955;-75
2022/11/09 10:35:06;;;;;;;;;;;9.80;99.90;;;;;;5095136;28;19969;-75
2022/11/09 10:37:38;;;;;;;;;;;9.80;99.90;;;;;;5094684;28;19908;-74
2022/11/09 10:40:07;;;;;;;;;;;9.80;99.90;;;;;;5095343;28;19912;-74
2022/11/09 10:42:33;;;;;;;;;;;9.80;99.90;;;;;;5094244;28;20478;-74
2022/11/09 10:45:06;;;;;;;;;;;9.80;99.90;;;;;;5095352;28;19909;-74
2022/11/09 10:47:45;;;;;;;;;;;9.80;99.90;;;;;;5093878;28;20376;-76
2022/11/09 10:50:21;;;;;;;;;;;9.90;99.90;;;;;;5095543;28;19908;-74
2022/11/09 10:52:47;;;;;;;;;;;9.90;99.90;;;;;;5094495;28;20250;-75
2022/11/09 10:55:35;;;;;;;;;;;10.00;99.90;;;;;;5094818;28;19962;-75
2022/11/09 10:58:21;;;;;;;;;;;10.00;99.90;;;;;;5094652;28;20337;-75
2022/11/09 11:01:02;;;;;;;;;;;10.10;99.90;;;;;;5089671;28;19993;-74
2022/11/09 11:03:29;;;;;;;;;;;10.10;99.90;;;;;;5093810;28;20384;-75
2022/11/09 11:05:58;;;;;;;;;;;10.20;99.90;;;;;;5094071;28;20353;-76
2022/11/09 11:08:26;;;;;;;;;;;10.20;99.90;;;;;;5092296;28;19919;-76
2022/11/09 11:11:04;;;;;;;;;;;10.30;99.90;;;;;;5094292;28;19909;-75
2022/11/09 11:13:30;;;;;;;;;;;10.40;99.90;;;;;;5092404;28;19908;-74
2022/11/09 11:15:57;;;;;;;;;;;10.50;99.90;;;;;;5093588;28;19962;-75
2022/11/09 11:18:24;;;;;;;;;;;10.50;99.90;;;;;;5094803;28;19955;-76
2022/11/09 11:21:05;;;;;;;;;;;10.50;99.90;;;;;;5092965;28;19908;-74
2022/11/09 11:23:35;;;;;;;;;;;10.50;99.90;;;;;;5093792;28;19965;-75
2022/11/09 11:26:22;;;;;;;;;;;10.50;99.90;;;;;;5094379;28;19981;-75
2022/11/09 11:28:55;;;;;;;;;;;10.60;99.90;;;;;;5093204;28;19908;-75
2022/11/09 11:31:21;;;;;;;;;;;10.60;99.90;;;;;;5094665;28;19970;-74
2022/11/09 11:33:46;;;;;;;;;;;10.70;99.90;;;;;;5093592;28;20360;-75
2022/11/09 11:36:31;;;;;;;;;;;10.70;99.90;;;;;;5094186;28;19908;-75
2022/11/09 11:39:06;;;;;;;;;;;10.70;99.90;;;;;;5093945;28;19912;-74
2022/11/09 11:41:34;;;;;;;;;;;10.80;99.90;;;;;;5093230;28;19912;-75
2022/11/09 11:44:06;;;;;;;;;;;10.90;99.90;;;;;;5094086;28;20367;-75
2022/11/09 11:46:43;;;;;;;;;;;11.00;99.90;;;;;;5093329;28;19954;-74
2022/11/09 11:49:14;;;;;;;;;;;11.00;99.90;;;;;;5093621;28;19909;-74
2022/11/09 11:51:43;;;;;;;;;;;11.10;99.90;;;;;;5093374;28;19908;-74
2022/11/09 11:54:14;;;;;;;;;;;11.20;99.90;;;;;;5093668;28;19909;-74
2022/11/09 11:56:47;;;;;;;;;;;11.20;99.90;;;;;;5093576;28;19908;-74
2022/11/09 11:59:30;;;;;;;;;;;11.30;99.90;;;;;;5094105;28;19931;-74
2022/11/09 12:02:02;;;;;;;;;;;11.30;99.90;;;;;;5092363;28;19924;-74
2022/11/09 12:04:30;;;;;;;;;;;11.40;99.90;;;;;;5092964;28;19908;-74
2022/11/09 12:07:14;;;;;;;;;;;11.50;99.90;;;;;;5093667;28;19909;-74
2022/11/09 12:09:40;;;;;;;;;;;11.50;99.90;;;;;;5092900;28;19908;-74
2022/11/09 12:12:05;;;;;;;;;;;11.60;99.90;;;;;;5093166;28;19908;-74
2022/11/09 12:14:49;;;;;;;;;;;11.60;99.90;;;;;;5092752;28;19912;-74
2022/11/09 12:17:29;;;;;;;;;;;11.70;99.90;;;;;;5093608;28;19908;-75
2022/11/09 12:20:00;;;;;;;;;;;11.80;99.90;;;;;;5093613;28;19915;-75
2022/11/09 12:22:25;;;;;;;;;;;11.80;99.90;;;;;;5093473;28;19923;-75
2022/11/09 12:24:59;;;;;;;;;;;11.90;99.90;;;;;;5093034;28;19919;-75
2022/11/09 12:27:35;;;;;;;;;;;11.90;99.90;;;;;;5092848;28;20286;-75
2022/11/09 12:30:18;;;;;;;;;;;11.90;99.90;;;;;;5093370;28;19908;-75
2022/11/09 12:32:54;;;;;;;;;;;12.00;99.90;;;;;;5092799;28;20246;-75
2022/11/09 12:35:26;;;;;;;;;;;12.10;99.90;;;;;;5091396;28;19908;-75
2022/11/09 12:37:54;;;;;;;;;;;12.20;99.90;;;;;;5092731;28;19912;-76
2022/11/09 12:40:31;;;;;;;;;;;12.20;99.90;;;;;;5093190;28;19912;-75
2022/11/09 12:43:01;;;;;;;;;;;12.30;99.90;;;;;;5091820;28;19986;-76
2022/11/09 12:45:29;;;;;;;;;;;12.40;99.90;;;;;;5094191;28;19916;-74
2022/11/09 12:47:56;;;;;;;;;;;12.40;99.90;;;;;;5092387;28;20273;-74
2022/11/09 12:50:24;;;;;;;;;;;12.50;99.90;;;;;;5092804;28;19908;-75
2022/11/09 12:52:51;;;;;;;;;;;12.50;99.90;;;;;;5092635;28;19915;-74
2022/11/09 12:55:27;;;;;;;;;;;12.60;99.90;;;;;;5091654;28;19958;-73
2022/11/09 12:57:53;;;;;;;;;;;12.60;99.90;;;;;;5093055;28;19909;-75
2022/11/09 13:00:34;;;;;;;;;;;12.60;99.90;;;;;;5091812;28;19991;-74
2022/11/09 13:03:04;;;;;;;;;;;12.60;99.90;;;;;;5092542;28;19927;-74
2022/11/09 13:05:30;;;;;;;;;;;12.60;99.90;;;;;;5092204;28;19943;-75
2022/11/09 13:07:58;;;;;;;;;;;12.50;99.90;;;;;;5092447;28;20349;-74
2022/11/09 13:10:24;;;;;;;;;;;12.50;99.90;;;;;;5091412;28;20327;-74
2022/11/09 13:13:00;;;;;;;;;;;12.50;99.90;;;;;;5092223;28;19904;-75
2022/11/09 13:15:26;;;;;;;;;;;12.50;99.90;;;;;;5091534;28;19912;-74
2022/11/09 13:17:55;;;;;;;;;;;12.50;99.90;;;;;;5092204;28;20406;-74
2022/11/09 13:20:33;;;;;;;;;;;12.50;99.90;;;;;;5092618;28;19908;-74
2022/11/09 13:23:00;;;;;;;;;;;12.40;99.90;;;;;;5091199;28;19925;-74
2022/11/09 13:25:43;;;;;;;;;;;12.40;99.90;;;;;;5096356;28;19953;-74
2022/11/09 13:28:41;;;;;;;;;;;12.30;99.90;;;;;;5096084;28;19909;-75
2022/11/09 13:31:07;;;;;;;;;;;12.40;99.90;;;;;;5072948;28;19947;-76
2022/11/09 13:33:33;;;;;;;;;;;12.40;99.90;;;;;;5095825;28;19987;-76
2022/11/09 13:36:19;;;;;;;;;;;12.40;99.90;;;;;;5095524;28;19943;-74
2022/11/09 13:38:45;;;;;;;;;;;12.50;99.90;;;;;;5094882;28;19953;-75
2022/11/09 13:41:29;;;;;;;;;;;12.50;99.90;;;;;;5095619;28;19908;-75
2022/11/09 13:44:13;;;;;;;;;;;12.60;99.90;;;;;;5095323;28;19923;-76
2022/11/09 13:46:38;;;;;;;;;;;12.60;99.90;;;;;;5095060;28;19958;-74
2022/11/09 13:49:24;;;;;;;;;;;12.50;99.90;;;;;;5095538;28;19947;-75
2022/11/09 13:51:49;;;;;;;;;;;12.50;99.90;;;;;;5093500;28;19912;-75
2022/11/09 13:54:27;;;;;;;;;;;12.50;99.90;;;;;;5095722;28;20249;-74
2022/11/09 13:56:52;;;;;;;;;;;12.40;99.90;;;;;;5094590;28;19994;-74
2022/11/09 13:59:24;;;;;;;;;;;12.40;99.90;;;;;;5095829;28;20004;-74
2022/11/09 14:01:52;;;;;;;;;;;12.30;99.90;;;;;;5095397;28;20506;-74
2022/11/09 14:04:21;;;;;;;;;;;12.30;99.90;;;;;;5096542;28;19990;-75
2022/11/09 14:06:47;;;;;;;;;;;12.30;99.90;;;;;;5095201;28;19955;-75
2022/11/09 14:09:15;;;;;;;;;;;12.20;99.90;;;;;;5095491;28;19944;-74
2022/11/09 14:12:07;;;;;;;;;;;12.20;99.90;;;;;;5093906;28;20250;-75
2022/11/09 14:14:51;;;;;;;;;;;12.10;99.90;;;;;;5095534;28;19973;-76
2022/11/09 14:17:26;;;;;;;;;;;12.00;99.90;;;;;;5095704;28;19914;-75
2022/11/09 14:20:01;;;;;;;;;;;12.00;99.90;;;;;;5094553;28;19904;-75
2022/11/09 14:22:30;;;;;;;;;;;12.10;99.90;;;;;;5095678;28;19919;-75
2022/11/09 14:24:55;;;;;;;;;;;12.00;99.90;;;;;;5094719;28;19912;-74
2022/11/09 14:27:21;;;;;;;;;;;12.00;99.90;;;;;;5095408;28;19908;-74
2022/11/09 14:29:48;;;;;;;;;;;12.00;99.90;;;;;;5093461;28;19958;-74
2022/11/09 14:32:17;;;;;;;;;;;12.00;99.90;;;;;;5095417;28;19912;-75
2022/11/09 14:34:43;;;;;;;;;;;12.00;99.90;;;;;;5094318;28;19912;-74
2022/11/09 14:37:10;;;;;;;;;;;12.00;99.90;;;;;;5094930;28;20421;-76
2022/11/09 14:39:36;;;;;;;;;;;12.10;99.90;;;;;;5094620;28;20353;-76